Time;durP1;ratioP1;P1;durP2;ratioP2;P2;SDS_P1;SDS_P2;PMS_P1;PMS_P2;Temp;Humidity;BMP_temperature;BMP_pressure;BME280_temperature;BME280_humidity;BME280_pressure;Samples;Min_cycle;Max_cycle;Signal;HPM_P1;HPM_P2
2021/06/01 00:02:19;;;;;;;4.70;4.30;;;16.00;57.90;;;;;;5065064;28;20233;-91
2021/06/01 00:04:45;;;;;;;4.20;3.90;;;16.00;57.80;;;;;;5046533;28;20179;-90
2021/06/01 00:07:11;;;;;;;4.03;3.73;;;16.00;57.20;;;;;;5029516;28;20250;-90
2021/06/01 00:09:36;;;;;;;4.37;4.07;;;16.00;56.80;;;;;;5063953;28;20207;-90
2021/06/01 00:12:03;;;;;;;4.60;4.20;;;16.10;56.60;;;;;;5064214;28;20200;-91
2021/06/01 00:14:28;;;;;;;4.73;4.00;;;16.00;56.60;;;;;;5063949;28;20214;-91
2021/06/01 00:16:55;;;;;;;4.73;4.17;;;15.90;57.00;;;;;;5063986;28;20176;-92
2021/06/01 00:19:21;;;;;;;4.37;3.83;;;15.80;56.90;;;;;;5045328;28;20203;-91
2021/06/01 00:21:47;;;;;;;4.33;3.93;;;15.70;57.00;;;;;;5063350;28;20176;-91
2021/06/01 00:24:13;;;;;;;4.33;3.93;;;15.70;57.10;;;;;;5063358;28;20211;-91
2021/06/01 00:26:41;;;;;;;4.40;4.10;;;15.70;57.00;;;;;;5045682;28;20188;-90
2021/06/01 00:29:07;;;;;;;4.03;3.73;;;15.70;57.40;;;;;;5063254;28;20179;-91
2021/06/01 00:31:33;;;;;;;4.40;4.10;;;15.70;57.40;;;;;;5062925;28;20182;-91
2021/06/01 00:33:59;;;;;;;5.00;4.57;;;15.70;57.40;;;;;;5063277;28;20187;-91
2021/06/01 00:36:25;;;;;;;4.77;4.37;;;15.70;57.30;;;;;;5045805;28;20190;-91
2021/06/01 00:38:51;;;;;;;4.23;3.83;;;15.70;58.20;;;;;;5045259;28;20246;-92
2021/06/01 00:41:17;;;;;;;4.70;4.30;;;15.90;57.40;;;;;;5045462;28;20200;-91
2021/06/01 00:43:43;;;;;;;4.43;4.13;;;16.00;57.10;;;;;;5045272;28;20201;-91
2021/06/01 00:46:08;;;;;;;4.50;4.10;;;16.20;57.00;;;;;;5062978;28;20229;-90
2021/06/01 00:48:34;;;;;;;4.53;4.17;;;16.20;56.80;;;;;;5064150;28;20207;-91
2021/06/01 00:51:00;;;;;;;5.17;4.67;;;16.30;56.60;;;;;;5042743;28;20213;-91
2021/06/01 00:53:26;;;;;;;4.90;4.50;;;16.40;56.30;;;;;;5044736;28;20185;-91
2021/06/01 00:55:52;;;;;;;4.30;4.00;;;16.50;56.30;;;;;;5062258;28;20191;-90
2021/06/01 00:58:18;;;;;;;4.57;4.17;;;16.50;56.00;;;;;;5045128;28;20751;-91
2021/06/01 01:03:28;;;;;;;4.50;4.20;;;16.60;55.20;;;;;;5062965;28;20203;-90
2021/06/01 01:06:02;;;;;;;4.90;4.40;;;16.40;55.30;;;;;;5017464;28;20217;-90
2021/06/01 01:08:45;;;;;;;4.20;3.90;;;16.20;55.90;;;;;;5043122;28;20170;-91
2021/06/01 01:11:26;;;;;;;6.70;4.07;;;16.00;56.40;;;;;;5064594;28;20274;-89
2021/06/01 01:14:02;;;;;;;5.73;4.07;;;16.10;56.70;;;;;;5066676;28;20680;-91
2021/06/01 01:16:30;;;;;;;4.03;3.73;;;16.20;56.30;;;;;;5062319;28;20172;-91
2021/06/01 01:19:05;;;;;;;4.73;4.33;;;16.30;56.70;;;;;;5044875;28;20180;-91
2021/06/01 01:21:36;;;;;;;4.37;4.03;;;16.40;56.60;;;;;;5062169;28;20209;-91
2021/06/01 01:24:36;;;;;;;4.43;4.03;;;16.50;56.10;;;;;;5062774;28;20199;-91
2021/06/01 01:27:24;;;;;;;3.93;3.63;;;16.30;55.20;;;;;;5062583;28;20187;-91
2021/06/01 01:29:51;;;;;;;4.17;3.87;;;16.10;55.90;;;;;;5044778;28;20283;-91
2021/06/01 01:32:29;;;;;;;5.03;4.07;;;16.00;56.30;;;;;;5045726;28;20181;-90
2021/06/01 01:34:58;;;;;;;4.27;3.90;;;15.90;57.10;;;;;;5063927;28;20219;-90
2021/06/01 01:37:25;;;;;;;4.00;3.70;;;15.80;57.30;;;;;;5066370;28;20175;-90
2021/06/01 01:39:56;;;;;;;4.07;3.67;;;15.70;57.80;;;;;;5055746;28;20216;-89
2021/06/01 01:42:23;;;;;;;4.00;3.50;;;15.40;58.40;;;;;;5063256;28;20192;-89
2021/06/01 01:44:51;;;;;;;4.60;4.07;;;15.30;58.80;;;;;;5052825;28;20206;-91
2021/06/01 01:50:00;;;;;;;4.00;3.70;;;15.40;58.10;;;;;;5070478;28;20220;-92
2021/06/01 01:52:27;;;;;;;4.53;4.13;;;15.60;57.50;;;;;;5056564;28;20218;-90
2021/06/01 01:54:54;;;;;;;4.67;3.77;;;15.70;56.60;;;;;;5075513;28;20187;-92
2021/06/01 01:57:20;;;;;;;4.27;3.97;;;15.60;56.80;;;;;;5050046;28;20183;-90
2021/06/01 01:59:46;;;;;;;4.83;4.10;;;15.50;57.30;;;;;;5066839;28;20249;-92
2021/06/01 02:02:13;;;;;;;4.47;4.17;;;15.30;57.60;;;;;;5066217;28;20181;-90
2021/06/01 02:04:40;;;;;;;4.50;4.10;;;15.20;58.00;;;;;;5066726;28;20202;-91
2021/06/01 02:07:06;;;;;;;4.30;4.00;;;15.10;58.70;;;;;;5048691;28;20187;-90
2021/06/01 02:09:32;;;;;;;4.23;3.93;;;14.90;59.30;;;;;;5047617;28;20210;-91
2021/06/01 02:11:57;;;;;;;4.37;4.03;;;14.80;59.70;;;;;;5028309;28;20193;-92
2021/06/01 02:14:23;;;;;;;4.50;4.20;;;14.60;59.90;;;;;;5028657;28;20216;-91
2021/06/01 02:16:50;;;;;;;4.83;3.77;;;14.60;59.40;;;;;;5011925;28;20217;-91
2021/06/01 02:19:19;;;;;;;4.33;4.03;;;14.60;60.20;;;;;;5028557;28;20189;-91
2021/06/01 02:24:36;;;;;;;4.27;3.97;;;14.40;60.50;;;;;;5045539;28;20208;-90
2021/06/01 02:27:20;;;;;;;4.70;4.30;;;14.40;60.70;;;;;;5028726;28;20178;-90
2021/06/01 02:30:03;;;;;;;4.83;3.73;;;14.30;61.00;;;;;;5045830;28;20319;-90
2021/06/01 02:32:31;;;;;;;4.47;4.07;;;14.30;61.00;;;;;;5028042;28;20187;-89
2021/06/01 02:35:02;;;;;;;4.40;4.00;;;14.20;61.20;;;;;;5046349;28;20185;-90
2021/06/01 02:37:28;;;;;;;4.57;4.17;;;14.20;61.10;;;;;;5046334;28;20233;-90
2021/06/01 02:39:55;;;;;;;4.50;4.20;;;14.10;61.30;;;;;;5028425;28;20219;-90
2021/06/01 02:42:21;;;;;;;4.20;3.90;;;14.20;61.20;;;;;;5045866;28;20189;-90
2021/06/01 02:44:47;;;;;;;4.40;4.10;;;14.10;61.50;;;;;;5053417;28;20256;-89
2021/06/01 02:47:14;;;;;;;4.67;4.10;;;14.20;61.10;;;;;;5055193;28;20821;-91
2021/06/01 02:49:40;;;;;;;4.23;3.93;;;14.20;60.50;;;;;;5046797;28;20193;-90
2021/06/01 02:52:06;;;;;;;4.00;3.70;;;14.20;60.80;;;;;;5064336;28;20611;-91
2021/06/01 02:54:31;;;;;;;4.33;3.90;;;14.00;61.20;;;;;;5046266;28;20187;-91
2021/06/01 02:56:57;;;;;;;4.33;3.93;;;14.00;61.30;;;;;;5046712;28;20181;-92
2021/06/01 02:59:23;;;;;;;4.23;3.83;;;14.00;61.40;;;;;;5064461;28;21517;-91
2021/06/01 03:01:50;;;;;;;4.73;4.00;;;13.90;61.40;;;;;;5065428;28;20172;-90
2021/06/01 03:04:16;;;;;;;4.33;3.93;;;13.90;61.00;;;;;;5030584;28;20216;-91
2021/06/01 03:06:43;;;;;;;3.87;3.57;;;13.90;61.40;;;;;;5063979;28;20213;-90
2021/06/01 03:09:09;;;;;;;4.37;3.97;;;13.80;61.00;;;;;;5064947;28;20190;-91
2021/06/01 03:11:35;;;;;;;3.93;3.63;;;13.80;61.20;;;;;;5066566;28;20180;-91
2021/06/01 03:14:01;;;;;;;4.60;4.20;;;13.80;61.00;;;;;;5048064;28;20270;-91
2021/06/01 03:16:27;;;;;;;4.40;4.00;;;13.70;61.00;;;;;;5047798;28;20197;-91
2021/06/01 03:18:52;;;;;;;4.47;4.07;;;13.60;61.90;;;;;;5047089;28;20200;-90
2021/06/01 03:21:18;;;;;;;4.53;4.13;;;13.60;61.80;;;;;;5064883;28;20218;-91
2021/06/01 03:23:46;;;;;;;4.23;3.93;;;13.50;61.90;;;;;;5031134;28;20207;-91
2021/06/01 03:26:12;;;;;;;5.50;4.00;;;13.50;62.50;;;;;;5031731;28;20187;-90
2021/06/01 03:28:46;;;;;;;6.33;4.00;;;13.50;62.30;;;;;;5064059;28;20184;-90
2021/06/01 03:33:46;;;;;;;4.70;4.20;;;13.60;61.40;;;;;;5067015;28;20216;-90
2021/06/01 03:36:11;;;;;;;4.30;3.97;;;13.60;61.70;;;;;;5058431;28;20702;-90
2021/06/01 03:38:38;;;;;;;4.13;3.83;;;13.50;61.60;;;;;;5058551;28;20594;-89
2021/06/01 03:41:05;;;;;;;5.67;3.90;;;13.30;62.50;;;;;;5058417;28;20172;-89
2021/06/01 03:43:31;;;;;;;4.37;4.00;;;13.30;62.60;;;;;;5040322;28;20392;-89
2021/06/01 03:45:57;;;;;;;4.00;3.67;;;13.30;63.60;;;;;;5040564;28;20856;-90
2021/06/01 03:48:23;;;;;;;4.27;3.80;;;13.20;63.20;;;;;;5058340;28;20185;-89
2021/06/01 03:50:48;;;;;;;5.23;4.73;;;13.20;62.60;;;;;;5057764;28;20286;-89
2021/06/01 03:53:14;;;;;;;4.10;3.80;;;13.20;63.30;;;;;;5057853;28;20235;-89
2021/06/01 03:55:40;;;;;;;4.57;4.17;;;13.20;63.10;;;;;;5058014;28;20932;-89
2021/06/01 03:58:05;;;;;;;4.30;3.90;;;13.20;62.80;;;;;;5024147;28;20318;-90
2021/06/01 04:00:31;;;;;;;5.47;3.90;;;13.20;62.90;;;;;;5069305;28;20183;-90
2021/06/01 04:02:58;;;;;;;6.37;3.93;;;13.20;62.80;;;;;;5068268;28;20276;-89
2021/06/01 04:05:24;;;;;;;4.43;3.60;;;13.20;62.70;;;;;;5051123;28;20247;-89
2021/06/01 04:07:49;;;;;;;4.47;4.07;;;13.30;61.00;;;;;;5057215;28;20190;-90
2021/06/01 04:10:16;;;;;;;3.80;3.50;;;13.30;61.50;;;;;;5056095;28;20191;-89
2021/06/01 04:12:42;;;;;;;4.10;3.70;;;13.40;60.40;;;;;;5039724;28;20219;-87
2021/06/01 04:15:08;;;;;;;4.40;4.00;;;13.30;61.60;;;;;;5057497;28;20191;-89
2021/06/01 04:17:34;;;;;;;3.90;3.60;;;13.40;62.00;;;;;;5057127;28;20187;-89
2021/06/01 04:20:01;;;;;;;4.23;3.83;;;13.60;62.20;;;;;;5040021;28;20182;-90
2021/06/01 04:22:27;;;;;;;4.57;3.90;;;13.60;61.80;;;;;;5056554;28;21882;-89
2021/06/01 04:24:52;;;;;;;4.63;3.80;;;13.50;62.00;;;;;;5039138;28;20318;-91
2021/06/01 04:27:18;;;;;;;4.60;3.80;;;13.50;61.80;;;;;;5056598;28;20262;-89
2021/06/01 04:29:44;;;;;;;4.20;3.80;;;13.40;62.60;;;;;;5057149;28;20208;-89
2021/06/01 04:32:09;;;;;;;3.90;3.60;;;13.40;62.20;;;;;;5021886;28;20233;-89
2021/06/01 04:34:36;;;;;;;5.40;4.33;;;13.40;63.10;;;;;;5056330;28;20180;-88
2021/06/01 04:37:02;;;;;;;4.50;4.10;;;13.30;63.10;;;;;;5038834;28;20216;-88
2021/06/01 04:39:28;;;;;;;6.20;4.63;;;13.30;63.60;;;;;;5056947;28;20179;-87
2021/06/01 04:41:53;;;;;;;4.70;3.93;;;13.30;63.50;;;;;;5038352;28;20746;-88
2021/06/01 04:44:19;;;;;;;7.57;3.93;;;13.30;62.90;;;;;;5056253;28;20212;-90
2021/06/01 04:46:45;;;;;;;4.50;4.13;;;13.20;64.00;;;;;;5056696;28;20197;-87
2021/06/01 04:49:10;;;;;;;4.30;3.90;;;13.20;64.10;;;;;;5056997;28;20193;-90
2021/06/01 04:51:36;;;;;;;4.87;4.00;;;13.10;64.10;;;;;;5056786;28;20693;-87
2021/06/01 04:54:02;;;;;;;4.87;4.20;;;13.30;63.20;;;;;;5038271;28;20664;-88
2021/06/01 04:56:28;;;;;;;5.07;4.20;;;13.30;63.00;;;;;;5056614;28;20185;-90
2021/06/01 04:58:55;;;;;;;4.17;3.87;;;13.40;63.10;;;;;;5056688;28;20848;-87
2021/06/01 05:01:23;;;;;;;5.10;3.63;;;13.50;63.10;;;;;;5056342;28;20191;-90
2021/06/01 05:03:48;;;;;;;4.40;3.73;;;13.60;61.80;;;;;;5056992;28;20231;-88
2021/06/01 05:06:14;;;;;;;4.60;3.90;;;13.60;62.20;;;;;;5038958;28;20665;-88
2021/06/01 05:08:39;;;;;;;4.40;3.80;;;13.70;62.30;;;;;;5057723;28;20187;-88
2021/06/01 05:11:05;;;;;;;4.20;3.80;;;13.80;61.00;;;;;;5044997;28;20734;-90
2021/06/01 05:13:31;;;;;;;3.90;3.60;;;14.00;60.20;;;;;;5037409;28;20196;-88
2021/06/01 05:15:57;;;;;;;4.17;3.77;;;14.00;60.60;;;;;;5053044;28;20196;-89
2021/06/01 05:18:23;;;;;;;4.03;3.63;;;14.10;60.00;;;;;;5056993;28;20550;-88
2021/06/01 05:20:49;;;;;;;4.00;3.60;;;14.00;59.00;;;;;;5058874;28;20192;-91
2021/06/01 05:23:16;;;;;;;3.90;3.60;;;14.20;59.70;;;;;;5076542;28;20284;-90
2021/06/01 05:25:42;;;;;;;4.67;3.70;;;14.30;58.90;;;;;;5058394;28;20187;-88
2021/06/01 05:28:08;;;;;;;4.47;4.07;;;14.40;58.80;;;;;;5059502;28;20671;-88
2021/06/01 05:30:40;;;;;;;4.17;3.77;;;14.40;58.50;;;;;;5059296;28;20190;-88
2021/06/01 05:33:14;;;;;;;6.70;6.20;;;14.50;58.80;;;;;;5026972;28;20228;-88
2021/06/01 05:35:52;;;;;;;3.90;3.60;;;14.50;58.30;;;;;;5039358;28;20245;-91
2021/06/01 05:38:23;;;;;;;3.63;3.33;;;14.60;57.40;;;;;;5057527;28;20168;-88
2021/06/01 05:40:49;;;;;;;5.33;3.40;;;14.70;57.30;;;;;;5058318;28;20221;-88
2021/06/01 05:43:15;;;;;;;4.17;3.77;;;14.80;56.90;;;;;;5063548;28;20203;-88
2021/06/01 05:45:41;;;;;;;6.57;3.93;;;14.80;56.10;;;;;;5050374;28;20189;-91
2021/06/01 05:48:09;;;;;;;4.20;3.80;;;14.90;57.00;;;;;;5029667;28;20276;-88
2021/06/01 05:50:35;;;;;;;5.17;3.63;;;15.10;55.90;;;;;;5047613;28;20208;-88
2021/06/01 05:53:01;;;;;;;3.63;3.30;;;15.10;55.70;;;;;;5029378;28;20302;-90
2021/06/01 05:55:28;;;;;;;3.90;3.60;;;15.10;55.30;;;;;;5061762;28;20188;-90
2021/06/01 05:57:54;;;;;;;3.63;3.33;;;15.10;55.30;;;;;;5061604;28;20209;-89
2021/06/01 06:00:20;;;;;;;4.63;3.77;;;15.20;55.10;;;;;;5044260;28;20192;-88
2021/06/01 06:02:46;;;;;;;5.80;3.67;;;15.30;55.00;;;;;;5061582;28;20691;-89
2021/06/01 06:05:12;;;;;;;4.93;3.80;;;15.40;55.60;;;;;;5027798;28;20288;-89
2021/06/01 06:07:38;;;;;;;5.17;3.40;;;15.60;54.60;;;;;;5053001;28;20182;-88
2021/06/01 06:10:04;;;;;;;3.70;3.47;;;15.70;54.00;;;;;;5070337;28;20230;-89
2021/06/01 06:12:30;;;;;;;3.87;3.47;;;15.80;53.10;;;;;;5027820;28;20281;-89
2021/06/01 06:14:55;;;;;;;3.73;3.43;;;15.90;53.80;;;;;;5061990;28;20667;-89
2021/06/01 06:17:56;;;;;;;4.00;3.70;;;16.00;53.10;;;;;;5076133;28;20165;-89
2021/06/01 06:20:21;;;;;;;3.70;3.40;;;16.10;52.80;;;;;;5074755;28;20191;-90
2021/06/01 06:22:47;;;;;;;3.53;3.23;;;16.20;52.20;;;;;;5062710;28;20203;-91
2021/06/01 06:25:14;;;;;;;4.40;3.90;;;16.20;52.40;;;;;;5046356;28;20184;-90
2021/06/01 06:27:40;;;;;;;3.60;3.30;;;16.30;52.20;;;;;;5062999;28;20211;-90
2021/06/01 06:30:08;;;;;;;4.47;3.70;;;16.40;52.10;;;;;;5043080;28;20283;-90
2021/06/01 06:32:35;;;;;;;3.63;3.33;;;16.50;51.80;;;;;;5062931;28;20223;-90
2021/06/01 06:35:01;;;;;;;3.90;3.60;;;16.60;51.60;;;;;;5063047;28;20221;-90
2021/06/01 06:37:27;;;;;;;3.50;3.20;;;16.60;50.90;;;;;;5046842;28;20226;-90
2021/06/01 06:39:53;;;;;;;3.70;3.40;;;16.70;51.00;;;;;;5063071;28;20588;-90
2021/06/01 06:42:19;;;;;;;3.37;3.17;;;16.80;51.10;;;;;;5063364;28;20259;-90
2021/06/01 06:44:50;;;;;;;3.80;3.30;;;16.90;51.80;;;;;;5028735;28;20254;-90
2021/06/01 06:49:44;;;;;;;4.17;3.30;;;17.30;50.00;;;;;;5065775;28;20248;-89
2021/06/01 06:52:11;;;;;;;3.60;3.30;;;17.40;49.70;;;;;;5066045;28;20210;-90
2021/06/01 06:54:37;;;;;;;3.37;3.17;;;17.50;49.10;;;;;;5061720;28;20306;-90
2021/06/01 06:57:04;;;;;;;3.53;3.23;;;17.60;49.60;;;;;;5061520;28;20221;-90
2021/06/01 06:59:30;;;;;;;3.93;3.53;;;17.70;48.80;;;;;;5060611;28;20272;-90
2021/06/01 07:01:56;;;;;;;3.53;3.23;;;17.80;48.70;;;;;;5060858;28;20241;-90
2021/06/01 07:04:22;;;;;;;3.87;3.43;;;17.90;48.70;;;;;;5069921;28;20207;-90
2021/06/01 07:06:48;;;;;;;6.10;3.40;;;18.10;47.50;;;;;;5047190;28;20217;-89
2021/06/01 07:09:15;;;;;;;3.20;2.97;;;18.20;47.10;;;;;;5043610;28;20199;-90
2021/06/01 07:11:41;;;;;;;3.50;3.20;;;18.20;46.50;;;;;;5060060;28;20222;-90
2021/06/01 07:14:09;;;;;;;3.73;3.30;;;18.30;46.10;;;;;;5078029;28;20184;-90
2021/06/01 07:16:36;;;;;;;6.23;3.37;;;18.40;45.80;;;;;;5061829;28;20271;-90
2021/06/01 07:19:02;;;;;;;4.53;3.73;;;18.50;45.60;;;;;;5060418;28;20177;-90
2021/06/01 07:21:27;;;;;;;4.67;3.63;;;18.60;46.00;;;;;;5043586;28;20193;-90
2021/06/01 07:23:53;;;;;;;5.23;3.50;;;18.70;44.80;;;;;;5061261;28;20746;-88
2021/06/01 07:26:19;;;;;;;3.90;3.40;;;18.90;45.30;;;;;;5060645;28;20661;-88
2021/06/01 07:28:44;;;;;;;4.35;3.95;;;19.10;44.70;;;;;;5064122;28;20307;-91
2021/06/01 07:31:15;;;;;;;3.08;2.78;;;19.20;43.60;;;;;;5062392;28;20190;-87
2021/06/01 07:33:41;;;;;;;5.22;3.47;;;19.40;42.70;;;;;;5080082;28;20224;-90
2021/06/01 07:36:07;;;;;;;3.45;3.17;;;19.50;43.00;;;;;;5071709;28;20205;-88
2021/06/01 07:38:35;;;;;;;3.60;3.40;;;19.60;42.10;;;;;;5060414;28;20192;-88
2021/06/01 07:41:01;;;;;;;3.88;3.10;;;19.50;42.10;;;;;;5061319;28;20202;-88
2021/06/01 07:43:27;;;;;;;3.70;3.17;;;19.60;41.60;;;;;;5060971;28;20210;-88
2021/06/01 07:45:53;;;;;;;3.97;2.88;;;19.70;41.10;;;;;;5043326;28;20189;-88
2021/06/01 07:48:19;;;;;;;3.50;3.20;;;19.70;41.30;;;;;;5060411;28;20708;-88
2021/06/01 07:50:45;;;;;;;4.28;3.30;;;20.00;40.80;;;;;;5060464;28;20179;-88
2021/06/01 07:53:10;;;;;;;4.47;3.30;;;20.10;40.30;;;;;;5059988;28;20253;-88
2021/06/01 07:55:36;;;;;;;4.03;3.15;;;20.20;40.70;;;;;;5074301;28;20195;-88
2021/06/01 07:58:02;;;;;;;3.80;3.30;;;20.40;40.40;;;;;;5061591;28;20192;-89
2021/06/01 08:00:28;;;;;;;3.80;3.40;;;20.50;38.90;;;;;;5060280;28;20678;-89
2021/06/01 08:02:53;;;;;;;3.40;2.90;;;20.60;37.60;;;;;;5042245;28;20243;-89
2021/06/01 08:05:20;;;;;;;3.35;3.05;;;20.60;38.30;;;;;;5061405;28;20176;-89
2021/06/01 08:07:47;;;;;;;5.70;3.10;;;20.80;38.30;;;;;;5046343;28;20191;-89
2021/06/01 08:10:17;;;;;;;3.58;2.90;;;21.10;38.90;;;;;;5065374;28;20307;-89
2021/06/01 08:12:44;;;;;;;3.90;2.70;;;21.20;36.40;;;;;;5065634;28;20686;-90
2021/06/01 08:15:10;;;;;;;4.78;3.75;;;21.20;35.60;;;;;;5048596;28;20316;-90
2021/06/01 08:17:36;;;;;;;3.40;3.20;;;21.20;35.30;;;;;;5038987;28;20430;-89
2021/06/01 08:20:13;;;;;;;8.18;3.30;;;21.40;36.10;;;;;;5057315;28;20238;-90
2021/06/01 08:22:41;;;;;;;3.47;3.20;;;21.50;35.70;;;;;;5037999;28;20533;-89
2021/06/01 08:25:08;;;;;;;3.47;3.08;;;21.60;35.90;;;;;;5065325;28;20189;-89
2021/06/01 08:27:34;;;;;;;3.38;2.95;;;21.70;35.30;;;;;;5065260;28;20242;-90
2021/06/01 08:29:59;;;;;;;7.72;3.53;;;21.90;34.60;;;;;;5064111;28;20191;-89
2021/06/01 08:32:25;;;;;;;3.78;3.00;;;21.90;34.20;;;;;;5063820;28;20209;-89
2021/06/01 08:34:52;;;;;;;4.70;3.28;;;22.00;34.70;;;;;;5046684;28;20282;-90
2021/06/01 08:37:18;;;;;;;3.60;3.30;;;22.10;33.40;;;;;;5063032;28;20185;-90
2021/06/01 08:39:44;;;;;;;3.35;3.05;;;22.20;33.70;;;;;;5062234;28;20183;-90
2021/06/01 08:42:09;;;;;;;5.18;3.60;;;22.20;33.70;;;;;;5044928;28;20210;-90
2021/06/01 08:44:35;;;;;;;3.95;3.50;;;22.20;33.60;;;;;;5063007;28;20216;-90
2021/06/01 08:47:02;;;;;;;3.75;3.20;;;22.50;34.20;;;;;;5062775;28;20187;-90
2021/06/01 08:49:28;;;;;;;6.63;3.13;;;22.60;32.50;;;;;;5062933;28;20180;-90
2021/06/01 08:51:54;;;;;;;3.40;3.10;;;22.80;33.40;;;;;;5077489;28;20198;-91
2021/06/01 08:54:20;;;;;;;3.47;3.17;;;22.80;32.10;;;;;;5076889;28;20183;-90
2021/06/01 08:56:46;;;;;;;3.65;3.20;;;22.80;32.30;;;;;;5083273;28;20190;-90
2021/06/01 08:59:13;;;;;;;3.20;3.00;;;22.90;32.80;;;;;;5070741;28;20178;-92
2021/06/01 09:01:39;;;;;;;4.35;3.22;;;23.10;30.90;;;;;;5080653;28;20202;-92
2021/06/01 09:04:11;;;;;;;4.22;3.03;;;23.10;31.40;;;;;;5076462;28;20214;-89
2021/06/01 09:22:46;;;;;;;4.32;3.33;;;24.10;29.90;;;;;;5028698;28;20224;-89
2021/06/01 09:27:55;;;;;;;3.53;3.22;;;24.20;29.20;;;;;;5038432;28;20209;-89
2021/06/01 09:30:37;;;;;;;3.63;3.33;;;24.20;30.00;;;;;;5036278;28;20325;-89
2021/06/01 09:33:05;;;;;;;3.22;2.90;;;24.50;29.10;;;;;;5059529;28;20220;-90
2021/06/01 09:35:57;;;;;;;3.40;3.13;;;24.40;29.00;;;;;;5078810;28;20195;-89
2021/06/01 09:38:25;;;;;;;3.83;3.35;;;24.60;28.90;;;;;;5027463;28;20244;-90
2021/06/01 09:41:08;;;;;;;5.88;3.38;;;24.80;28.50;;;;;;5044041;28;20184;-89
2021/06/01 09:43:47;;;;;;;3.65;3.13;;;24.70;28.30;;;;;;5062099;28;20204;-89
2021/06/01 09:46:20;;;;;;;5.32;3.58;;;24.60;27.80;;;;;;5046281;28;20507;-89
2021/06/01 09:48:47;;;;;;;3.53;3.22;;;24.90;27.30;;;;;;5061230;28;20183;-89
2021/06/01 09:51:24;;;;;;;3.30;3.05;;;24.90;27.30;;;;;;5028804;28;20191;-89
2021/06/01 09:53:53;;;;;;;3.20;2.90;;;24.90;27.80;;;;;;5062147;28;20695;-89
2021/06/01 09:56:19;;;;;;;3.33;3.03;;;25.00;27.40;;;;;;5043619;28;20199;-89
2021/06/01 09:58:45;;;;;;;4.93;3.20;;;25.20;28.30;;;;;;5046894;28;20179;-90
2021/06/01 10:01:11;;;;;;;4.10;3.47;;;25.30;27.40;;;;;;5047527;28;20203;-89
2021/06/01 10:03:47;;;;;;;3.35;3.03;;;25.50;27.80;;;;;;5046603;28;20224;-89
2021/06/01 10:06:13;;;;;;;3.10;2.90;;;25.80;26.40;;;;;;5064171;28;20222;-91
2021/06/01 10:08:52;;;;;;;3.90;3.30;;;25.80;25.50;;;;;;5070512;28;20180;-90
2021/06/01 10:11:18;;;;;;;3.00;2.78;;;25.70;26.00;;;;;;5067485;28;20176;-91
2021/06/01 10:13:45;;;;;;;3.15;2.95;;;25.80;26.20;;;;;;5086916;28;20172;-89
2021/06/01 10:16:16;;;;;;;3.65;3.35;;;25.90;26.80;;;;;;5069198;28;20183;-89
2021/06/01 10:18:43;;;;;;;3.45;3.15;;;25.90;26.80;;;;;;5085511;28;20198;-90
2021/06/01 10:21:12;;;;;;;8.13;3.60;;;26.00;26.50;;;;;;5050980;28;20183;-91
2021/06/01 10:23:43;;;;;;;2.83;2.63;;;26.20;25.90;;;;;;5067426;28;20233;-90
2021/06/01 10:26:12;;;;;;;3.67;3.38;;;26.30;26.00;;;;;;5065847;28;20190;-90
2021/06/01 10:28:42;;;;;;;3.30;3.10;;;26.40;26.50;;;;;;5066003;28;20225;-90
2021/06/01 10:31:12;;;;;;;3.60;3.30;;;26.70;26.30;;;;;;5048408;28;20269;-90
2021/06/01 10:33:51;;;;;;;3.50;3.20;;;26.70;25.50;;;;;;5047844;28;20223;-90
2021/06/01 10:51:00;;;;;;;8.55;3.45;;;27.30;26.10;;;;;;5045624;28;20663;-90
2021/06/01 10:53:07;;;;;;;7.88;3.65;;;27.00;26.60;;;;;;5035268;28;20273;-90
2021/06/01 10:55:53;;;;;;;5.82;3.72;;;27.20;25.90;;;;;;5028313;28;20242;-90
2021/06/01 10:58:24;;;;;;;3.70;3.40;;;27.00;26.70;;;;;;5064198;28;20176;-91
2021/06/01 11:03:34;;;;;;;4.88;3.78;;;27.30;26.20;;;;;;5066414;28;20274;-90
2021/06/01 11:06:03;;;;;;;3.70;3.45;;;27.30;26.00;;;;;;5049082;28;20187;-90
2021/06/01 11:08:37;;;;;;;3.60;3.30;;;27.60;25.60;;;;;;5081521;28;20180;-89
2021/06/01 11:11:24;;;;;;;4.80;3.47;;;27.40;25.00;;;;;;5085098;28;20175;-89
2021/06/01 11:13:51;;;;;;;4.03;3.63;;;27.50;25.70;;;;;;5085011;28;20267;-89
2021/06/01 11:16:16;;;;;;;5.03;4.57;;;27.80;25.10;;;;;;5080348;28;20184;-89
2021/06/01 11:18:49;;;;;;;4.32;3.80;;;28.10;25.10;;;;;;5069584;28;20592;-89
2021/06/01 11:21:35;;;;;;;5.85;3.47;;;28.20;25.00;;;;;;5083989;28;20179;-89
2021/06/01 11:24:18;;;;;;;5.03;3.17;;;28.30;24.80;;;;;;5080245;28;20657;-89
2021/06/01 11:35:38;;;;;;;4.00;3.60;;;28.90;24.70;;;;;;5029831;28;20184;-89
2021/06/01 11:43:14;;;;;;;3.88;3.47;;;29.30;25.10;;;;;;5079007;28;20243;-87
2021/06/01 11:46:04;;;;;;;6.07;4.05;;;29.40;24.80;;;;;;5064505;28;20184;-87
2021/06/01 11:51:16;;;;;;;7.03;3.60;;;29.30;23.80;;;;;;5059544;28;20214;-89
2021/06/01 11:53:51;;;;;;;4.93;3.47;;;29.40;24.30;;;;;;5061581;28;20639;-90
2021/06/01 11:56:49;;;;;;;5.13;4.05;;;29.70;24.40;;;;;;5053759;28;20187;-90
2021/06/01 12:02:06;;;;;;;4.22;3.83;;;29.50;23.60;;;;;;5061910;28;20206;-90
2021/06/01 12:18:29;;;;;;;5.05;3.70;;;30.00;23.50;;;;;;5060766;28;20191;-90
2021/06/01 12:20:56;;;;;;;6.55;3.88;;;29.30;23.80;;;;;;5064143;28;20254;-90
2021/06/01 12:23:47;;;;;;;5.82;3.40;;;29.20;23.90;;;;;;5064285;28;20216;-90
2021/06/01 12:26:25;;;;;;;5.80;3.60;;;29.00;24.20;;;;;;5077790;28;20180;-90
2021/06/01 12:32:05;;;;;;;3.90;3.70;;;29.90;23.90;;;;;;5062285;28;20219;-90
2021/06/01 12:43:23;;;;;;;3.40;3.20;;;30.60;22.60;;;;;;5072920;28;20214;-88
2021/06/01 12:45:58;;;;;;;9.20;3.80;;;30.20;23.30;;;;;;5044834;28;20903;-88
2021/06/01 13:20:09;;;;;;;4.18;3.88;;;32.20;22.60;;;;;;5027435;28;20246;-88
2021/06/01 13:37:16;;;;;;;15.75;4.40;;;31.70;22.00;;;;;;5023038;28;20294;-87
2021/06/01 13:39:55;;;;;;;4.82;4.10;;;32.20;22.00;;;;;;5012936;28;20166;-88
2021/06/01 13:56:02;;;;;;;4.38;4.07;;;33.10;21.40;;;;;;5032530;28;20646;-88
2021/06/01 14:01:09;;;;;;;4.20;3.97;;;32.70;21.00;;;;;;5031492;28;20169;-86
2021/06/01 14:31:22;;;;;;;5.50;4.00;;;33.10;20.90;;;;;;5028519;28;20275;-86
2021/06/01 15:49:39;;;;;;;8.02;4.03;;;33.90;19.60;;;;;;5041839;28;20716;-87
2021/06/01 16:33:42;;;;;;;6.07;4.63;;;33.90;20.60;;;;;;5094649;22;20732;-89
2021/06/01 16:44:23;;;;;;;4.22;3.83;;;33.00;21.40;;;;;;5033304;28;20209;-86
2021/06/01 17:03:31;;;;;;;4.30;3.95;;;33.40;20.60;;;;;;5034390;28;20282;-86
2021/06/01 17:06:07;;;;;;;4.53;4.22;;;32.90;20.70;;;;;;5038698;28;20566;-86
2021/06/01 17:09:06;;;;;;;4.72;4.07;;;32.70;20.90;;;;;;5039235;28;20169;-86
2021/06/01 17:11:35;;;;;;;4.40;4.07;;;32.80;20.90;;;;;;5039218;28;20424;-85
2021/06/01 17:14:03;;;;;;;4.15;3.78;;;32.80;21.40;;;;;;5002192;28;20787;-86
2021/06/01 17:16:52;;;;;;;4.00;3.70;;;32.70;20.60;;;;;;5017649;28;20181;-85
2021/06/01 17:35:36;;;;;;;6.93;6.18;;;29.50;23.50;;;;;;5029201;28;20230;-87
2021/06/01 17:38:04;;;;;;;4.10;3.80;;;29.30;23.50;;;;;;5031931;28;20557;-87
2021/06/01 17:40:35;;;;;;;3.95;3.58;;;29.40;23.60;;;;;;5030737;28;20185;-87
2021/06/01 17:43:08;;;;;;;4.32;3.80;;;29.40;23.40;;;;;;5031376;28;20208;-88
2021/06/01 17:45:40;;;;;;;3.90;3.55;;;29.40;23.60;;;;;;5012353;28;20201;-88
2021/06/01 17:48:08;;;;;;;4.28;3.88;;;29.30;23.50;;;;;;5010147;28;20542;-88
2021/06/01 17:50:35;;;;;;;4.10;3.78;;;29.00;23.80;;;;;;5010649;28;20236;-89
2021/06/01 17:53:02;;;;;;;4.38;3.70;;;29.10;24.00;;;;;;5011491;28;20882;-87
2021/06/01 17:55:31;;;;;;;4.63;4.22;;;29.00;24.50;;;;;;5021402;28;20197;-88
2021/06/01 17:57:58;;;;;;;4.53;3.92;;;28.80;24.00;;;;;;5030455;28;20272;-88
2021/06/01 18:00:25;;;;;;;4.45;3.90;;;28.60;24.30;;;;;;5032390;28;20741;-89
2021/06/01 18:02:51;;;;;;;3.80;3.60;;;28.60;24.50;;;;;;5030094;28;20291;-89
2021/06/01 18:05:20;;;;;;;4.72;3.90;;;28.50;24.30;;;;;;5029353;28;20813;-89
2021/06/01 18:08:00;;;;;;;3.83;3.50;;;28.30;24.70;;;;;;5013799;28;20272;-88
2021/06/01 19:24:54;;;;;;;4.38;3.95;;;25.20;34.70;;;;;;5032416;28;20200;-86
2021/06/01 19:52:22;;;;;;;6.82;3.58;;;23.20;41.20;;;;;;5033452;28;20179;-84
2021/06/01 19:54:52;;;;;;;4.13;3.58;;;23.10;41.00;;;;;;5034248;28;20522;-85
2021/06/01 19:57:19;;;;;;;3.83;3.53;;;23.10;41.50;;;;;;5029745;28;20637;-87
2021/06/01 19:59:45;;;;;;;4.95;3.90;;;23.10;41.50;;;;;;5031754;28;20185;-87
2021/06/01 20:02:19;;;;;;;3.80;3.50;;;22.80;41.30;;;;;;5032548;28;20185;-86
2021/06/01 20:04:45;;;;;;;3.83;3.53;;;22.80;41.90;;;;;;5034444;28;20219;-84
2021/06/01 20:07:13;;;;;;;4.38;3.83;;;22.80;41.90;;;;;;5037910;28;20653;-84
2021/06/01 20:09:41;;;;;;;13.57;4.38;;;22.80;41.30;;;;;;5018861;28;20192;-84
2021/06/01 20:12:08;;;;;;;7.97;4.05;;;23.00;41.90;;;;;;5035257;28;20185;-89
2021/06/01 20:14:35;;;;;;;4.03;3.72;;;23.10;41.00;;;;;;5017352;28;20189;-86
2021/06/01 20:17:02;;;;;;;4.20;3.83;;;23.20;40.70;;;;;;5034059;28;20196;-87
2021/06/01 20:19:30;;;;;;;4.00;3.70;;;23.50;40.10;;;;;;5033978;28;20204;-87